createdAt,value
2023-04-01T00:00:47.185Z,3.75
2023-04-01T00:03:51.250Z,4.68
2023-04-01T00:06:54.496Z,3.47
2023-04-01T00:09:57.484Z,3.10
2023-04-01T00:13:00.569Z,3.50
2023-04-01T00:16:17.675Z,3.95
2023-04-01T00:19:23.656Z,4.45
2023-04-01T00:22:28.178Z,5.90
2023-04-01T00:25:31.611Z,4.30
2023-04-01T00:28:37.285Z,8.43
2023-04-01T00:31:40.857Z,6.72
2023-04-01T00:34:45.768Z,7.47
2023-04-01T00:37:48.966Z,11.35
2023-04-01T00:40:58.605Z,10.10
2023-04-01T00:44:24.647Z,7.43
2023-04-01T00:47:28.976Z,10.40
2023-04-01T00:50:33.570Z,8.45
2023-04-01T00:53:41.588Z,9.13
2023-04-01T00:56:57.273Z,6.75
2023-04-01T01:00:01.076Z,8.73
2023-04-01T01:03:04.618Z,5.97
2023-04-01T01:06:24.592Z,6.60
2023-04-01T01:13:15.708Z,8.20
2023-04-01T01:16:27.415Z,9.15
2023-04-01T01:19:49.635Z,7.50
2023-04-01T01:23:37.884Z,8.05
2023-04-01T01:26:58.803Z,5.57
2023-04-01T01:30:08.537Z,4.72
2023-04-01T01:36:17.209Z,4.78
2023-04-01T01:39:21.599Z,4.88
2023-04-01T01:42:27.557Z,4.95
2023-04-01T01:45:32.230Z,4.78
2023-04-01T01:48:37.636Z,4.75
2023-04-01T01:51:41.336Z,7.60
2023-04-01T01:54:52.722Z,8.50
2023-04-01T01:58:00.935Z,6.13
2023-04-01T02:01:07.438Z,5.30
2023-04-01T02:04:12.369Z,6.75
2023-04-01T02:07:37.341Z,6.03
2023-04-01T02:10:45.244Z,5.82
2023-04-01T02:13:57.761Z,4.78
2023-04-01T02:17:08.729Z,4.80
2023-04-01T02:20:19.093Z,6.32
2023-04-01T02:23:22.489Z,5.63
2023-04-01T02:26:28.037Z,7.70
2023-04-01T02:29:31.436Z,5.28
2023-04-01T02:32:39.176Z,7.70
2023-04-01T02:35:42.633Z,7.30
2023-04-01T02:38:48.083Z,6.45
2023-04-01T02:41:51.176Z,7.55
2023-04-01T02:44:54.179Z,8.40
2023-04-01T02:47:57.393Z,7.85
2023-04-01T02:51:00.340Z,9.20
2023-04-01T02:54:04.471Z,8.07
2023-04-01T02:57:07.751Z,7.80
2023-04-01T03:00:12.592Z,9.02
2023-04-01T03:03:15.947Z,7.32
2023-04-01T03:06:19.294Z,6.15
2023-04-01T03:09:22.583Z,9.77
2023-04-01T03:12:25.565Z,6.40
2023-04-01T03:15:28.656Z,7.05
2023-04-01T03:18:31.265Z,6.50
2023-04-01T03:21:34.643Z,9.68
2023-04-01T03:24:37.620Z,7.97
2023-04-01T03:27:40.714Z,9.00
2023-04-01T03:30:43.832Z,6.32
2023-04-01T03:33:47.208Z,8.02
2023-04-01T03:36:50.084Z,6.95
2023-04-01T03:39:53.585Z,8.85
2023-04-01T03:42:57.557Z,7.50
2023-04-01T03:46:00.713Z,9.15
2023-04-01T03:49:04.394Z,7.43
2023-04-01T03:52:11.886Z,9.38
2023-04-01T03:55:14.781Z,9.00
2023-04-01T03:58:17.866Z,7.95
2023-04-01T04:01:22.799Z,7.85
2023-04-01T04:04:26.003Z,7.80
2023-04-01T04:07:29.084Z,9.95
2023-04-01T04:10:32.519Z,9.75
2023-04-01T04:13:37.320Z,9.75
2023-04-01T04:16:40.405Z,10.82
2023-04-01T04:19:43.906Z,6.75
2023-04-01T04:22:47.512Z,10.07
2023-04-01T04:26:03.609Z,9.25
2023-04-01T04:29:06.806Z,13.32
2023-04-01T04:32:09.684Z,14.77
2023-04-01T04:35:12.978Z,13.90
2023-04-01T04:38:16.074Z,13.30
2023-04-01T04:41:20.456Z,12.63
2023-04-01T04:44:23.887Z,13.80
2023-04-01T04:47:26.900Z,14.25
2023-04-01T04:50:29.865Z,13.02
2023-04-01T04:53:33.167Z,17.40
2023-04-01T04:56:37.277Z,15.98
2023-04-01T04:59:40.366Z,13.95
2023-04-01T05:02:43.727Z,13.63
2023-04-01T05:05:54.741Z,14.23
2023-04-01T05:08:58.342Z,13.80
2023-04-01T05:12:01.639Z,13.60
2023-04-01T05:15:08.426Z,17.25
2023-04-01T05:18:11.297Z,15.23
2023-04-01T05:21:16.437Z,18.42
2023-04-01T05:24:19.428Z,19.92
2023-04-01T05:27:22.928Z,27.50
2023-04-01T05:30:25.919Z,25.35
2023-04-01T05:33:29.930Z,21.52
2023-04-01T05:36:33.239Z,39.30
2023-04-01T05:39:40.108Z,19.00
2023-04-01T05:42:43.402Z,31.73
2023-04-01T05:45:46.513Z,20.75
2023-04-01T05:48:49.895Z,8.40
2023-04-01T05:51:52.879Z,11.27
2023-04-01T05:54:55.872Z,11.80
2023-04-01T05:57:59.059Z,9.10
2023-04-01T06:01:11.252Z,7.30
2023-04-01T06:04:19.395Z,8.70
2023-04-01T06:07:22.467Z,9.50
2023-04-01T06:10:50.542Z,11.23
2023-04-01T06:14:12.392Z,10.82
2023-04-01T06:17:36.778Z,11.15
2023-04-01T06:20:55.010Z,8.25
2023-04-01T06:24:14.308Z,8.63
2023-04-01T06:27:48.092Z,7.15
2023-04-01T06:31:20.208Z,8.90
2023-04-01T06:34:26.549Z,8.82
2023-04-01T06:38:00.543Z,8.23
2023-04-01T06:41:26.775Z,7.50
2023-04-01T06:44:32.531Z,8.27
2023-04-01T06:47:45.581Z,7.70
2023-04-01T06:51:08.848Z,8.00
2023-04-01T06:54:36.489Z,7.32
2023-04-01T06:57:55.145Z,7.95
2023-04-01T07:01:05.240Z,6.45
2023-04-01T07:04:27.149Z,7.90
2023-04-01T07:07:54.596Z,8.50
2023-04-01T07:11:05.464Z,8.85
2023-04-01T07:14:34.870Z,8.43
2023-04-01T07:17:41.065Z,6.13
2023-04-01T07:20:44.327Z,7.72
2023-04-01T07:23:48.951Z,7.00
2023-04-01T07:26:58.288Z,8.88
2023-04-01T07:30:03.230Z,5.82
2023-04-01T07:33:14.719Z,7.03
2023-04-01T07:36:39.411Z,7.20
2023-04-01T07:39:54.382Z,7.07
2023-04-01T07:43:27.883Z,7.78
2023-04-01T07:46:51.153Z,8.38
2023-04-01T07:50:07.261Z,7.28
2023-04-01T07:53:31.648Z,4.75
2023-04-01T07:56:52.974Z,5.10
2023-04-01T08:00:08.647Z,7.57
2023-04-01T08:03:33.454Z,6.75
2023-04-01T08:07:08.691Z,5.72
2023-04-01T08:10:33.704Z,4.60
2023-04-01T08:13:47.949Z,5.25
2023-04-01T08:17:06.080Z,4.32
2023-04-01T08:20:36.513Z,7.72
2023-04-01T08:23:46.372Z,5.07
2023-04-01T08:26:54.780Z,6.70
2023-04-01T08:30:18.556Z,5.00
2023-04-01T08:33:31.155Z,3.72
2023-04-01T08:36:38.875Z,4.65
2023-04-01T08:39:49.848Z,5.18
2023-04-01T08:43:17.532Z,4.40
2023-04-01T08:46:44.574Z,3.65
2023-04-01T08:50:12.744Z,4.60
2023-04-01T08:53:30.781Z,3.92
2023-04-01T08:56:59.263Z,3.85
2023-04-01T09:00:47.012Z,3.53
2023-04-01T09:04:05.074Z,3.30
2023-04-01T09:07:27.089Z,4.70
2023-04-01T09:10:48.420Z,4.93
2023-04-01T09:14:10.657Z,5.15
2023-04-01T09:17:45.877Z,3.40
2023-04-01T09:21:12.541Z,3.60
2023-04-01T09:24:27.921Z,4.68
2023-04-01T09:27:51.597Z,3.58
2023-04-01T09:31:18.609Z,6.65
2023-04-01T09:34:42.745Z,3.13
2023-04-01T09:37:49.407Z,4.25
2023-04-01T09:41:08.996Z,4.30
2023-04-01T09:44:15.358Z,4.22
2023-04-01T09:47:30.066Z,2.47
2023-04-01T09:50:43.769Z,3.05
2023-04-01T09:53:59.356Z,5.13
2023-04-01T09:57:47.292Z,4.70
2023-04-01T10:01:00.723Z,3.85
2023-04-01T10:04:26.242Z,5.15
2023-04-01T10:07:38.241Z,4.45
2023-04-01T10:11:02.453Z,3.25
2023-04-01T10:14:33.166Z,3.58
2023-04-01T10:18:07.109Z,3.53
2023-04-01T10:21:27.378Z,3.15
2023-04-01T10:24:45.217Z,3.03
2023-04-01T10:27:57.314Z,2.20
2023-04-01T10:31:00.728Z,2.67
2023-04-01T10:34:34.531Z,2.30
2023-04-01T10:37:58.407Z,3.92
2023-04-01T10:41:15.525Z,3.22
2023-04-01T10:44:26.922Z,2.10
2023-04-01T10:47:35.869Z,3.10
2023-04-01T10:50:59.945Z,1.90
2023-04-01T10:54:50.334Z,1.67
2023-04-01T10:58:10.116Z,2.05
2023-04-01T11:02:00.666Z,2.42
2023-04-01T11:05:41.492Z,3.28
2023-04-01T11:08:50.010Z,1.70
2023-04-01T11:15:58.060Z,1.55
2023-04-01T11:19:07.178Z,2.72
2023-04-01T11:22:16.322Z,1.55
2023-04-01T11:25:37.625Z,1.67
2023-04-01T11:28:57.313Z,1.15
2023-04-01T11:32:09.314Z,1.15
2023-04-01T11:35:33.942Z,2.92
2023-04-01T11:39:26.357Z,2.15
2023-04-01T11:43:07.442Z,1.55
2023-04-01T11:46:33.139Z,1.85
2023-04-01T11:49:55.199Z,2.35
2023-04-01T11:53:20.818Z,1.52
2023-04-01T11:56:50.971Z,1.50
2023-04-01T12:03:42.613Z,1.80
2023-04-01T12:10:19.396Z,1.98
2023-04-01T12:13:34.159Z,0.93
2023-04-01T12:16:49.070Z,1.77
2023-04-01T12:20:13.039Z,1.65
2023-04-01T12:23:38.942Z,1.30
2023-04-01T12:27:07.763Z,1.83
2023-04-01T12:30:16.976Z,1.92
2023-04-01T12:33:29.382Z,0.90
2023-04-01T12:37:05.444Z,1.05
2023-04-01T12:40:33.718Z,1.27
2023-04-01T12:44:10.506Z,0.52
2023-04-01T12:47:21.585Z,0.60
2023-04-01T12:50:57.965Z,0.68
2023-04-01T12:54:28.528Z,1.55
2023-04-01T12:57:58.013Z,0.85
2023-04-01T13:01:12.799Z,2.17
2023-04-01T13:04:34.906Z,0.70
2023-04-01T13:08:06.977Z,0.68
2023-04-01T13:11:51.951Z,0.80
2023-04-01T13:15:27.774Z,1.13
2023-04-01T13:18:54.959Z,4.53
2023-04-01T13:22:08.100Z,1.35
2023-04-01T13:25:59.199Z,2.03
2023-04-01T13:29:38.047Z,1.85
2023-04-01T13:32:59.413Z,3.83
2023-04-01T13:36:19.676Z,1.77
2023-04-01T13:39:50.288Z,2.60
2023-04-01T13:43:00.043Z,3.40
2023-04-01T13:46:03.370Z,5.05
2023-04-01T13:49:40.324Z,5.10
2023-04-01T13:53:17.414Z,2.67
2023-04-01T13:56:23.585Z,2.00
2023-04-01T13:59:58.002Z,1.35
2023-04-01T14:03:30.230Z,1.10
2023-04-01T14:06:41.560Z,2.45
2023-04-01T14:10:02.262Z,2.95
2023-04-01T14:13:19.695Z,1.70
2023-04-01T14:16:23.132Z,3.10
2023-04-01T14:19:30.280Z,1.48
2023-04-01T14:22:52.122Z,2.25
2023-04-01T14:26:28.289Z,1.13
2023-04-01T14:29:57.483Z,1.73
2023-04-01T14:33:21.360Z,1.20
2023-04-01T14:36:51.794Z,2.28
2023-04-01T14:40:21.619Z,1.63
2023-04-01T14:43:56.665Z,0.63
2023-04-01T14:47:35.410Z,0.70
2023-04-01T14:50:52.294Z,0.60
2023-04-01T14:54:13.413Z,0.95
2023-04-01T14:57:25.772Z,1.25
2023-04-01T15:00:32.325Z,1.73
2023-04-01T15:03:57.202Z,1.45
2023-04-01T15:07:08.688Z,0.90
2023-04-01T15:10:31.346Z,3.45
2023-04-01T15:14:00.184Z,1.38
2023-04-01T15:17:22.389Z,0.85
2023-04-01T15:21:03.051Z,1.95
2023-04-01T15:24:34.918Z,0.90
2023-04-01T15:27:52.347Z,0.70
2023-04-01T15:30:59.567Z,0.60
2023-04-01T15:34:41.231Z,0.70
2023-04-01T15:38:08.183Z,0.60
2023-04-01T15:41:14.251Z,1.83
2023-04-01T15:44:52.369Z,0.90
2023-04-01T15:48:27.602Z,1.48
2023-04-01T15:51:49.848Z,0.52
2023-04-01T15:54:58.677Z,2.15
2023-04-01T15:58:27.772Z,2.20
2023-04-01T16:01:49.463Z,2.20
2023-04-01T16:04:58.842Z,2.53
2023-04-01T16:08:32.133Z,2.92
2023-04-01T16:11:56.118Z,3.05
2023-04-01T16:15:30.904Z,2.10
2023-04-01T16:19:06.298Z,3.65
2023-04-01T16:22:28.746Z,5.47
2023-04-01T16:25:43.207Z,4.82
2023-04-01T16:29:05.069Z,3.22
2023-04-01T16:32:44.798Z,3.22
2023-04-01T16:36:19.107Z,3.63
2023-04-01T16:39:47.900Z,3.42
2023-04-01T16:42:54.378Z,4.72
2023-04-01T16:46:22.581Z,2.15
2023-04-01T16:50:07.017Z,2.17
2023-04-01T16:53:17.170Z,1.95
2023-04-01T16:56:38.588Z,3.38
2023-04-01T17:00:19.878Z,2.05
2023-04-01T17:06:49.620Z,1.88
2023-04-01T17:09:59.260Z,1.75
2023-04-01T17:13:37.599Z,4.65
2023-04-01T17:16:41.088Z,8.70
2023-04-01T17:19:51.242Z,48.83
2023-04-01T17:23:21.264Z,21.35
2023-04-01T17:26:48.110Z,7.53
2023-04-01T17:30:26.231Z,2.47
2023-04-01T17:33:33.114Z,6.88
2023-04-01T17:37:01.691Z,6.80
2023-04-01T17:40:30.074Z,2.97
2023-04-01T17:43:50.777Z,26.50
2023-04-01T17:47:15.685Z,16.92
2023-04-01T17:50:30.859Z,29.13
2023-04-01T17:53:57.292Z,15.45
2023-04-01T17:57:38.304Z,8.48
2023-04-01T18:00:54.668Z,7.15
2023-04-01T18:04:28.079Z,5.88
2023-04-01T18:07:45.915Z,6.07
2023-04-01T18:11:20.648Z,9.45
2023-04-01T18:14:43.092Z,100.32
2023-04-01T18:18:20.078Z,46.47
2023-04-01T18:21:30.547Z,34.05
2023-04-01T18:25:01.924Z,21.45
2023-04-01T18:28:22.101Z,40.40
2023-04-01T18:31:34.205Z,17.55
2023-04-01T18:35:14.563Z,14.30
2023-04-01T18:38:31.572Z,16.65
2023-04-01T18:41:58.830Z,5.70
2023-04-01T18:45:19.642Z,8.10
2023-04-01T18:48:58.054Z,7.78
2023-04-01T18:52:24.392Z,14.98
2023-04-01T18:55:34.931Z,7.25
2023-04-01T18:58:50.952Z,4.72
2023-04-01T19:02:22.306Z,6.55
2023-04-01T19:08:38.314Z,6.78
2023-04-01T19:12:13.148Z,4.75
2023-04-01T19:15:43.699Z,6.57
2023-04-01T19:19:08.478Z,5.80
2023-04-01T19:22:34.001Z,6.15
2023-04-01T19:25:38.726Z,9.85
2023-04-01T19:28:58.312Z,5.57
2023-04-01T19:32:33.366Z,6.07
2023-04-01T19:35:44.356Z,6.45
2023-04-01T19:38:56.433Z,6.95
2023-04-01T19:42:07.906Z,7.97
2023-04-01T19:45:24.329Z,6.95
2023-04-01T19:48:31.198Z,9.85
2023-04-01T19:52:06.345Z,5.88
2023-04-01T19:55:23.979Z,8.60
2023-04-01T19:58:47.236Z,7.18
2023-04-01T20:02:24.336Z,8.40
2023-04-01T20:06:21.902Z,8.07
2023-04-01T20:09:36.656Z,7.28
2023-04-01T20:12:42.614Z,6.80
2023-04-01T20:15:49.493Z,4.13
2023-04-01T20:19:02.112Z,5.32
2023-04-01T20:22:23.938Z,6.65
2023-04-01T20:25:30.204Z,5.10
2023-04-01T20:28:46.621Z,3.97
2023-04-01T20:32:13.842Z,4.65
2023-04-01T20:35:41.934Z,7.32
2023-04-01T20:39:12.983Z,4.32
2023-04-01T20:42:36.964Z,5.20
2023-04-01T20:45:56.897Z,6.00
2023-04-01T20:52:35.764Z,4.05
2023-04-01T20:55:48.523Z,3.75
2023-04-01T20:58:56.218Z,4.50
2023-04-01T21:02:38.555Z,7.90
2023-04-01T21:06:06.366Z,5.05
2023-04-01T21:09:21.374Z,14.15
2023-04-01T21:12:32.974Z,23.67
2023-04-01T21:16:09.360Z,32.35
2023-04-01T21:19:35.877Z,20.88
2023-04-01T21:22:54.322Z,9.75
2023-04-01T21:26:15.334Z,10.55
2023-04-01T21:29:51.504Z,8.93
2023-04-01T21:33:04.639Z,12.43
2023-04-01T21:36:22.725Z,56.13
2023-04-01T21:39:43.683Z,27.13
2023-04-01T21:42:52.802Z,19.55
2023-04-01T21:46:16.978Z,9.68
2023-04-01T21:49:44.866Z,7.45
2023-04-01T21:52:57.288Z,6.78
2023-04-01T21:56:54.439Z,5.05
2023-04-01T22:00:12.874Z,15.35
2023-04-01T22:03:33.888Z,16.75
2023-04-01T22:07:15.896Z,14.07
2023-04-01T22:10:31.282Z,14.15
2023-04-01T22:13:47.677Z,14.45
2023-04-01T22:17:04.897Z,18.67
2023-04-01T22:20:46.493Z,14.27
2023-04-01T22:27:08.852Z,8.77
2023-04-01T22:30:24.636Z,10.60
2023-04-01T22:33:33.670Z,7.70
2023-04-01T22:37:03.997Z,16.77
2023-04-01T22:40:09.958Z,29.73
2023-04-01T22:43:22.682Z,9.23
2023-04-01T22:46:45.218Z,8.13
2023-04-01T22:50:03.685Z,14.20
2023-04-01T22:53:27.759Z,9.48
2023-04-01T22:56:49.592Z,8.50
2023-04-01T22:59:59.543Z,6.00
2023-04-01T23:03:06.683Z,6.53
2023-04-01T23:06:22.208Z,8.15
2023-04-01T23:09:32.777Z,6.70
2023-04-01T23:12:36.507Z,5.22
2023-04-01T23:15:40.143Z,7.28
2023-04-01T23:19:14.819Z,5.22
2023-04-01T23:22:41.563Z,5.95
2023-04-01T23:26:01.960Z,5.18
2023-04-01T23:29:07.302Z,6.60
2023-04-01T23:32:23.821Z,6.72
2023-04-01T23:35:27.410Z,8.40
2023-04-01T23:38:30.392Z,5.45
2023-04-01T23:41:34.721Z,6.13
2023-04-01T23:44:38.623Z,6.82
2023-04-01T23:47:42.674Z,5.78
2023-04-01T23:50:46.963Z,8.65
2023-04-01T23:54:04.623Z,9.23
2023-04-01T23:57:14.904Z,10.30
